createdAt,value
2022-12-04T00:01:29.087Z,6.60
2022-12-04T00:03:59.409Z,6.60
2022-12-04T00:06:29.025Z,6.60
2022-12-04T00:08:57.786Z,6.60
2022-12-04T00:11:28.529Z,6.60
2022-12-04T00:14:06.836Z,6.60
2022-12-04T00:16:35.836Z,6.60
2022-12-04T00:19:05.293Z,6.70
2022-12-04T00:21:33.473Z,6.70
2022-12-04T00:24:01.558Z,6.50
2022-12-04T00:26:31.284Z,6.30
2022-12-04T00:29:01.820Z,6.10
2022-12-04T00:31:31.795Z,6.20
2022-12-04T00:34:00.561Z,6.30
2022-12-04T00:36:29.792Z,6.30
2022-12-04T00:38:59.595Z,6.40
2022-12-04T00:41:32.418Z,6.50
2022-12-04T00:44:02.852Z,6.50
2022-12-04T00:46:30.877Z,6.60
2022-12-04T00:49:01.759Z,6.60
2022-12-04T00:51:30.432Z,6.50
2022-12-04T00:53:58.596Z,6.60
2022-12-04T00:56:28.605Z,6.60
2022-12-04T00:58:58.999Z,6.60
2022-12-04T01:01:30.034Z,6.60
2022-12-04T01:03:58.155Z,6.60
2022-12-04T01:06:28.264Z,6.40
2022-12-04T01:08:58.309Z,6.40
2022-12-04T01:11:27.797Z,6.50
2022-12-04T01:13:56.616Z,6.60
2022-12-04T01:16:27.486Z,6.60
2022-12-04T01:18:57.368Z,6.60
2022-12-04T01:21:25.337Z,6.50
2022-12-04T01:23:53.450Z,6.40
2022-12-04T01:26:21.575Z,6.50
2022-12-04T01:28:50.227Z,6.50
2022-12-04T01:31:20.597Z,6.50
2022-12-04T01:33:49.122Z,6.20
2022-12-04T01:36:20.361Z,6.20
2022-12-04T01:38:48.720Z,6.20
2022-12-04T01:41:21.039Z,6.30
2022-12-04T01:44:10.582Z,6.30
2022-12-04T01:46:38.684Z,6.20
2022-12-04T01:49:09.227Z,6.20
2022-12-04T01:51:42.305Z,6.20
2022-12-04T01:54:15.953Z,6.10
2022-12-04T01:56:48.772Z,6.00
2022-12-04T01:59:20.552Z,6.00
2022-12-04T02:01:55.051Z,6.00
2022-12-04T02:04:23.149Z,6.00
2022-12-04T02:06:52.453Z,5.90
2022-12-04T02:09:26.882Z,6.00
2022-12-04T02:12:03.009Z,6.00
2022-12-04T02:14:39.018Z,6.00
2022-12-04T02:17:14.611Z,6.10
2022-12-04T02:20:24.700Z,6.00
2022-12-04T02:23:19.565Z,6.00
2022-12-04T02:25:58.372Z,6.10
2022-12-04T02:28:35.520Z,6.10
2022-12-04T02:31:06.083Z,6.10
2022-12-04T02:33:40.664Z,6.20
2022-12-04T02:36:13.990Z,6.10
2022-12-04T02:38:44.837Z,6.00
2022-12-04T02:41:17.290Z,5.90
2022-12-04T02:43:50.124Z,5.90
2022-12-04T02:46:22.794Z,5.90
2022-12-04T02:48:54.060Z,5.90
2022-12-04T02:51:24.285Z,5.80
2022-12-04T02:53:56.447Z,5.80
2022-12-04T02:56:27.894Z,5.90
2022-12-04T02:59:00.429Z,6.00
2022-12-04T03:01:33.188Z,6.20
2022-12-04T03:04:06.376Z,6.20
2022-12-04T03:06:37.610Z,6.30
2022-12-04T03:09:12.234Z,6.30
2022-12-04T03:11:45.139Z,6.30
2022-12-04T03:14:18.534Z,6.30
2022-12-04T03:16:49.631Z,6.30
2022-12-04T03:19:23.016Z,6.30
2022-12-04T03:21:55.354Z,6.20
2022-12-04T03:24:28.263Z,6.20
2022-12-04T03:27:02.231Z,6.20
2022-12-04T03:29:38.470Z,6.20
2022-12-04T03:32:12.459Z,6.20
2022-12-04T03:34:49.499Z,6.20
2022-12-04T03:37:20.891Z,6.20
2022-12-04T03:40:02.008Z,6.20
2022-12-04T03:42:36.807Z,6.20
2022-12-04T03:45:12.913Z,6.00
2022-12-04T03:47:47.138Z,5.90
2022-12-04T03:50:18.679Z,6.00
2022-12-04T03:52:53.556Z,6.10
2022-12-04T03:55:28.057Z,6.10
2022-12-04T03:58:00.960Z,6.10
2022-12-04T04:00:33.792Z,6.10
2022-12-04T04:03:08.984Z,6.10
2022-12-04T04:05:39.522Z,6.10
2022-12-04T04:08:29.840Z,6.00
2022-12-04T04:11:03.987Z,6.00
2022-12-04T04:13:54.609Z,6.10
2022-12-04T04:16:44.939Z,6.10
2022-12-04T04:19:33.850Z,6.10
2022-12-04T04:22:23.751Z,6.10
2022-12-04T04:24:56.304Z,6.10
2022-12-04T04:27:24.246Z,5.80
2022-12-04T04:29:53.896Z,5.70
2022-12-04T04:32:31.343Z,5.60
2022-12-04T04:35:05.560Z,5.40
2022-12-04T04:37:42.361Z,5.50
2022-12-04T04:40:15.271Z,5.50
2022-12-04T04:42:50.454Z,5.50
2022-12-04T04:45:23.155Z,5.60
2022-12-04T04:47:56.821Z,5.50
2022-12-04T04:50:25.459Z,5.70
2022-12-04T04:53:00.470Z,5.70
2022-12-04T04:55:29.359Z,5.60
2022-12-04T04:58:07.918Z,5.70
2022-12-04T05:00:36.088Z,5.80
2022-12-04T05:03:05.878Z,5.90
2022-12-04T05:05:34.040Z,6.00
2022-12-04T05:08:02.033Z,6.00
2022-12-04T05:10:30.036Z,6.00
2022-12-04T05:12:58.036Z,6.00
2022-12-04T05:15:28.937Z,6.00
2022-12-04T05:17:56.884Z,6.10
2022-12-04T05:20:27.541Z,6.00
2022-12-04T05:22:55.616Z,5.80
2022-12-04T05:25:23.819Z,5.80
2022-12-04T05:27:51.831Z,5.90
2022-12-04T05:30:19.945Z,5.90
2022-12-04T05:32:47.882Z,5.90
2022-12-04T05:35:16.870Z,5.80
2022-12-04T05:37:46.601Z,5.70
2022-12-04T05:40:14.982Z,5.70
2022-12-04T05:42:42.961Z,5.70
2022-12-04T05:45:11.524Z,5.90
2022-12-04T05:47:40.255Z,5.90
2022-12-04T05:50:10.373Z,6.00
2022-12-04T05:52:38.355Z,6.00
2022-12-04T05:55:08.461Z,6.10
2022-12-04T05:57:36.403Z,6.10
2022-12-04T06:00:05.493Z,6.10
2022-12-04T06:02:35.688Z,6.00
2022-12-04T06:05:03.962Z,6.00
2022-12-04T06:07:31.993Z,6.00
2022-12-04T06:10:00.150Z,5.90
2022-12-04T06:12:31.235Z,6.00
2022-12-04T06:14:59.356Z,6.00
2022-12-04T06:17:27.315Z,6.00
2022-12-04T06:19:56.242Z,6.00
2022-12-04T06:22:24.598Z,6.10
2022-12-04T06:24:52.556Z,6.00
2022-12-04T06:27:28.724Z,5.90
2022-12-04T06:29:58.642Z,5.90
2022-12-04T06:32:26.999Z,6.00
2022-12-04T06:34:56.016Z,6.00
2022-12-04T06:37:25.865Z,6.10
2022-12-04T06:39:56.174Z,6.20
2022-12-04T06:42:24.325Z,6.20
2022-12-04T06:44:52.282Z,6.20
2022-12-04T06:47:21.580Z,6.20
2022-12-04T06:49:51.865Z,6.10
2022-12-04T06:52:19.831Z,6.10
2022-12-04T06:54:47.810Z,6.10
2022-12-04T06:57:15.795Z,6.20
2022-12-04T06:59:43.768Z,6.20
2022-12-04T07:02:12.390Z,6.30
2022-12-04T07:04:41.887Z,6.20
2022-12-04T07:07:10.784Z,6.30
2022-12-04T07:09:38.920Z,6.30
2022-12-04T07:12:07.598Z,6.30
2022-12-04T07:14:35.538Z,6.30
2022-12-04T07:17:04.663Z,6.30
2022-12-04T07:19:32.665Z,6.30
2022-12-04T07:22:01.966Z,6.40
2022-12-04T07:24:29.933Z,6.40
2022-12-04T07:26:57.889Z,6.50
2022-12-04T07:29:25.835Z,6.50
2022-12-04T07:31:53.984Z,6.50
2022-12-04T07:34:22.015Z,6.50
2022-12-04T07:36:49.995Z,6.60
2022-12-04T07:39:19.541Z,6.50
2022-12-04T07:41:57.116Z,6.60
2022-12-04T07:44:25.356Z,6.60
2022-12-04T07:46:53.335Z,6.60
2022-12-04T07:49:21.384Z,6.70
2022-12-04T07:51:49.330Z,6.70
2022-12-04T07:54:17.290Z,6.70
2022-12-04T07:56:46.625Z,6.80
2022-12-04T07:59:14.757Z,6.80
2022-12-04T08:01:42.845Z,6.80
2022-12-04T08:04:12.634Z,6.60
2022-12-04T08:06:41.376Z,6.70
2022-12-04T08:09:10.509Z,6.70
2022-12-04T08:11:39.500Z,6.80
2022-12-04T08:14:09.874Z,6.80
2022-12-04T08:16:37.990Z,6.90
2022-12-04T08:19:06.279Z,6.90
2022-12-04T08:21:34.813Z,6.90
2022-12-04T08:24:03.194Z,7.00
2022-12-04T08:26:33.552Z,7.00
2022-12-04T08:29:02.508Z,6.90
2022-12-04T08:31:33.977Z,7.00
2022-12-04T08:34:04.274Z,6.90
2022-12-04T08:36:32.966Z,6.90
2022-12-04T08:39:01.057Z,6.90
2022-12-04T08:41:29.614Z,6.90
2022-12-04T08:43:58.036Z,6.90
2022-12-04T08:46:27.811Z,6.90
2022-12-04T08:48:57.848Z,6.90
2022-12-04T08:51:28.246Z,6.90
2022-12-04T08:53:57.407Z,7.00
2022-12-04T08:56:26.790Z,7.00
2022-12-04T08:58:56.348Z,6.90
2022-12-04T09:01:25.763Z,6.90
2022-12-04T09:03:54.521Z,7.00
2022-12-04T09:06:24.889Z,7.00
2022-12-04T09:08:55.254Z,7.10
2022-12-04T09:11:25.416Z,7.10
2022-12-04T09:13:53.991Z,7.10
2022-12-04T09:16:24.945Z,7.20
2022-12-04T09:18:53.047Z,7.20
2022-12-04T09:21:23.871Z,7.20
2022-12-04T09:23:52.602Z,7.20
2022-12-04T09:26:23.422Z,7.20
2022-12-04T09:28:52.303Z,7.20
2022-12-04T09:31:21.214Z,7.20
2022-12-04T09:33:50.025Z,7.20
2022-12-04T09:36:18.363Z,7.20
2022-12-04T09:38:49.221Z,7.10
2022-12-04T09:41:43.598Z,7.10
2022-12-04T09:44:17.744Z,7.20
2022-12-04T09:46:51.638Z,7.20
2022-12-04T09:49:25.363Z,7.20
2022-12-04T09:51:56.594Z,7.10
2022-12-04T09:54:30.392Z,7.10
2022-12-04T09:57:04.231Z,7.10
2022-12-04T09:59:33.811Z,7.10
2022-12-04T10:02:12.034Z,7.10
2022-12-04T10:04:40.052Z,7.10
2022-12-04T10:07:15.339Z,7.10
2022-12-04T10:09:52.009Z,7.00
2022-12-04T10:12:29.151Z,7.10
2022-12-04T10:15:15.832Z,7.10
2022-12-04T10:18:00.655Z,7.10
2022-12-04T10:20:46.525Z,7.10
2022-12-04T10:23:24.726Z,7.10
2022-12-04T10:25:56.454Z,7.10
2022-12-04T10:28:30.665Z,7.10
2022-12-04T10:31:02.215Z,7.10
2022-12-04T10:33:37.654Z,7.10
2022-12-04T10:36:06.245Z,7.20
2022-12-04T10:38:40.417Z,7.20
2022-12-04T10:41:18.940Z,7.20
2022-12-04T10:43:48.834Z,7.20
2022-12-04T10:46:20.096Z,7.20
2022-12-04T10:48:51.970Z,7.30
2022-12-04T10:51:22.342Z,7.20
2022-12-04T10:53:52.704Z,7.10
2022-12-04T10:56:24.638Z,7.00
2022-12-04T10:59:00.455Z,6.90
2022-12-04T11:01:30.765Z,7.00
2022-12-04T11:04:03.434Z,7.10
2022-12-04T11:06:31.854Z,7.10
2022-12-04T11:09:00.873Z,7.20
2022-12-04T11:11:32.123Z,7.30
2022-12-04T11:14:06.136Z,7.30
2022-12-04T11:16:40.964Z,7.40
2022-12-04T11:19:26.255Z,7.50
2022-12-04T11:21:56.448Z,7.50
2022-12-04T11:24:27.435Z,7.60
2022-12-04T11:26:58.557Z,7.60
2022-12-04T11:29:33.174Z,7.60
2022-12-04T11:32:07.494Z,7.60
2022-12-04T11:34:39.711Z,7.60
2022-12-04T11:37:19.170Z,7.60
2022-12-04T11:39:47.607Z,7.60
2022-12-04T11:42:24.930Z,7.50
2022-12-04T11:44:58.179Z,7.50
2022-12-04T11:47:29.975Z,7.50
2022-12-04T11:50:13.118Z,7.50
2022-12-04T11:52:59.176Z,7.50
2022-12-04T11:55:36.324Z,7.60
2022-12-04T11:58:23.293Z,7.50
2022-12-04T12:01:00.609Z,7.60
2022-12-04T12:03:35.940Z,7.60
2022-12-04T12:06:26.357Z,7.50
2022-12-04T12:09:13.633Z,7.50
2022-12-04T12:11:48.878Z,7.50
2022-12-04T12:14:24.253Z,7.50
2022-12-04T12:17:00.197Z,7.50
2022-12-04T12:19:43.728Z,7.50
2022-12-04T12:22:26.118Z,7.50
2022-12-04T12:25:02.488Z,7.50
2022-12-04T12:27:45.851Z,7.50
2022-12-04T12:30:18.878Z,7.60
2022-12-04T12:33:03.844Z,7.60
2022-12-04T12:35:35.188Z,7.60
2022-12-04T12:38:07.033Z,7.70
2022-12-04T12:40:38.598Z,7.70
2022-12-04T12:43:12.479Z,7.80
2022-12-04T12:45:51.473Z,7.80
2022-12-04T12:48:27.448Z,7.90
2022-12-04T12:51:22.254Z,7.90
2022-12-04T12:53:53.560Z,7.90
2022-12-04T12:56:31.224Z,8.00
2022-12-04T12:59:03.952Z,8.00
2022-12-04T13:01:44.583Z,8.00
2022-12-04T13:04:17.136Z,8.00
2022-12-04T13:06:47.923Z,8.00
2022-12-04T13:09:21.761Z,8.00
2022-12-04T13:11:52.650Z,8.10
2022-12-04T13:14:21.003Z,8.10
2022-12-04T13:16:54.239Z,8.10
2022-12-04T13:19:26.252Z,8.10
2022-12-04T13:22:03.567Z,8.10
2022-12-04T13:24:57.516Z,8.10
2022-12-04T13:27:35.795Z,8.20
2022-12-04T13:30:16.514Z,8.20
2022-12-04T13:33:20.441Z,8.20
2022-12-04T13:36:01.996Z,8.10
2022-12-04T13:38:40.538Z,8.00
2022-12-04T13:41:12.302Z,8.00
2022-12-04T13:43:47.399Z,8.00
2022-12-04T13:46:31.237Z,7.90
2022-12-04T13:49:23.869Z,7.90
2022-12-04T13:51:52.346Z,8.00
2022-12-04T13:54:27.317Z,8.00
2022-12-04T13:56:57.750Z,8.00
2022-12-04T13:59:36.481Z,8.00
2022-12-04T14:02:21.128Z,7.90
2022-12-04T14:04:56.259Z,7.90
2022-12-04T14:07:28.154Z,7.90
2022-12-04T14:09:59.103Z,7.80
2022-12-04T14:12:30.735Z,7.80
2022-12-04T14:15:01.479Z,7.70
2022-12-04T14:17:33.074Z,7.70
2022-12-04T14:20:08.043Z,7.70
2022-12-04T14:22:44.619Z,7.70
2022-12-04T14:25:36.679Z,7.80
2022-12-04T14:28:43.860Z,7.80
2022-12-04T14:31:22.271Z,7.80
2022-12-04T14:33:53.605Z,7.70
2022-12-04T14:36:26.359Z,7.70
2022-12-04T14:39:12.905Z,7.70
2022-12-04T14:41:41.759Z,7.60
2022-12-04T14:44:28.258Z,7.70
2022-12-04T14:47:00.377Z,7.70
2022-12-04T14:49:41.240Z,7.60
2022-12-04T14:52:18.143Z,7.60
2022-12-04T14:54:54.583Z,7.60
2022-12-04T14:57:39.411Z,7.60
2022-12-04T15:00:16.943Z,7.60
2022-12-04T15:02:46.891Z,7.60
2022-12-04T15:05:20.805Z,7.60
2022-12-04T15:07:52.935Z,7.60
2022-12-04T15:10:42.396Z,7.70
2022-12-04T15:13:11.076Z,7.70
2022-12-04T15:15:45.776Z,7.60
2022-12-04T15:18:15.861Z,7.60
2022-12-04T15:20:57.112Z,7.60
2022-12-04T15:23:30.404Z,7.70
2022-12-04T15:26:00.818Z,7.70
2022-12-04T15:28:32.651Z,7.70
2022-12-04T15:31:03.292Z,7.70
2022-12-04T15:33:41.947Z,7.70
2022-12-04T15:36:19.497Z,7.70
2022-12-04T15:38:52.485Z,7.70
2022-12-04T15:41:32.947Z,7.70
2022-12-04T15:44:01.532Z,7.60
2022-12-04T15:46:34.422Z,7.60
2022-12-04T15:49:18.299Z,7.60
2022-12-04T15:51:47.741Z,7.60
2022-12-04T15:54:25.830Z,7.60
2022-12-04T15:57:02.213Z,7.60
2022-12-04T15:59:31.895Z,7.60
2022-12-04T16:02:10.268Z,7.60
2022-12-04T16:04:44.035Z,7.60
2022-12-04T16:07:22.594Z,7.50
2022-12-04T16:10:02.876Z,7.60
2022-12-04T16:12:33.248Z,7.50
2022-12-04T16:15:01.185Z,7.50
2022-12-04T16:17:32.486Z,7.50
2022-12-04T16:20:01.452Z,7.50
2022-12-04T16:22:31.500Z,7.50
2022-12-04T16:25:01.052Z,7.50
2022-12-04T16:27:29.046Z,7.50
2022-12-04T16:29:57.013Z,7.50
2022-12-04T16:32:31.165Z,7.50
2022-12-04T16:34:59.508Z,7.50
2022-12-04T16:37:29.976Z,7.50
2022-12-04T16:39:59.952Z,7.50
2022-12-04T16:42:30.606Z,7.50
2022-12-04T16:44:59.926Z,7.50
2022-12-04T16:47:28.371Z,7.50
2022-12-04T16:49:56.352Z,7.50
2022-12-04T16:52:24.910Z,7.60
2022-12-04T16:54:52.896Z,7.50
2022-12-04T16:57:20.862Z,7.50
2022-12-04T16:59:50.341Z,7.50
2022-12-04T17:02:24.623Z,7.50
2022-12-04T17:04:57.200Z,7.50
2022-12-04T17:07:25.935Z,7.50
2022-12-04T17:09:53.957Z,7.50
2022-12-04T17:12:21.975Z,7.50
2022-12-04T17:14:51.706Z,7.60
2022-12-04T17:17:19.666Z,7.50
2022-12-04T17:19:47.971Z,7.50
2022-12-04T17:22:16.436Z,7.50
2022-12-04T17:24:50.250Z,7.50
2022-12-04T17:27:20.965Z,7.60
2022-12-04T17:29:49.391Z,7.60
2022-12-04T17:32:18.763Z,7.60
2022-12-04T17:34:46.752Z,7.60
2022-12-04T17:37:14.870Z,7.70
2022-12-04T17:39:44.863Z,7.60
2022-12-04T17:42:16.630Z,7.60
2022-12-04T17:44:44.884Z,7.70
2022-12-04T17:47:13.435Z,7.70
2022-12-04T17:49:42.834Z,7.60
2022-12-04T17:52:11.139Z,7.70
2022-12-04T17:54:39.360Z,7.70
2022-12-04T17:57:07.332Z,7.60
2022-12-04T17:59:35.363Z,7.50
2022-12-04T18:02:03.501Z,7.40
2022-12-04T18:04:31.497Z,7.50
2022-12-04T18:07:00.808Z,7.50
2022-12-04T18:09:28.834Z,7.50
2022-12-04T18:11:58.535Z,7.50
2022-12-04T18:14:26.819Z,7.50
2022-12-04T18:16:57.207Z,7.60
2022-12-04T18:19:27.216Z,7.60
2022-12-04T18:21:55.657Z,7.50
2022-12-04T18:24:27.426Z,7.50
2022-12-04T18:26:55.417Z,7.60
2022-12-04T18:29:25.739Z,7.60
2022-12-04T18:31:54.135Z,7.60
2022-12-04T18:34:23.033Z,7.50
2022-12-04T18:36:51.337Z,7.50
2022-12-04T18:39:21.467Z,7.60
2022-12-04T18:41:51.206Z,7.60
2022-12-04T18:44:19.320Z,7.60
2022-12-04T18:46:47.291Z,7.60
2022-12-04T18:49:15.471Z,7.60
2022-12-04T18:51:49.274Z,7.60
2022-12-04T18:54:20.733Z,7.50
2022-12-04T18:56:51.192Z,7.60
2022-12-04T18:59:22.252Z,7.50
2022-12-04T19:01:51.095Z,7.60
2022-12-04T19:04:22.150Z,7.50
2022-12-04T19:06:51.992Z,7.50
2022-12-04T19:09:35.402Z,7.50
2022-12-04T19:12:12.006Z,7.50
2022-12-04T19:14:40.036Z,7.60
2022-12-04T19:17:08.322Z,7.60
2022-12-04T19:19:36.414Z,7.60
2022-12-04T19:22:05.245Z,7.60
2022-12-04T19:24:33.671Z,7.60
2022-12-04T19:27:09.973Z,7.60
2022-12-04T19:29:39.687Z,7.60
2022-12-04T19:32:08.560Z,7.60
2022-12-04T19:34:37.193Z,7.60
2022-12-04T19:37:07.805Z,7.60
2022-12-04T19:39:35.951Z,7.70
2022-12-04T19:42:03.918Z,7.70
2022-12-04T19:44:49.168Z,7.60
2022-12-04T19:47:19.229Z,7.60
2022-12-04T19:49:47.544Z,7.60
2022-12-04T19:52:15.769Z,7.60
2022-12-04T19:54:43.892Z,7.60
2022-12-04T19:57:12.859Z,7.60
2022-12-04T19:59:57.394Z,7.60
2022-12-04T20:02:26.809Z,7.60
2022-12-04T20:04:54.859Z,7.60
2022-12-04T20:07:22.831Z,7.70
2022-12-04T20:09:55.068Z,7.60
2022-12-04T20:12:23.241Z,7.50
2022-12-04T20:14:51.427Z,7.50
2022-12-04T20:17:19.561Z,7.60
2022-12-04T20:19:49.017Z,7.60
2022-12-04T20:22:17.052Z,7.50
2022-12-04T20:24:45.176Z,7.50
2022-12-04T20:27:14.060Z,7.50
2022-12-04T20:29:42.129Z,7.50
2022-12-04T20:32:11.410Z,7.50
2022-12-04T20:34:43.492Z,7.50
2022-12-04T20:37:13.213Z,7.50
2022-12-04T20:39:41.381Z,7.50
2022-12-04T20:42:09.348Z,7.40
2022-12-04T20:44:37.425Z,7.40
2022-12-04T20:47:05.416Z,7.40
2022-12-04T20:49:33.504Z,7.40
2022-12-04T20:52:01.550Z,7.40
2022-12-04T20:54:30.939Z,7.30
2022-12-04T20:56:58.940Z,7.40
2022-12-04T20:59:26.908Z,7.30
2022-12-04T21:01:55.672Z,7.30
2022-12-04T21:04:24.194Z,7.30
2022-12-04T21:06:52.376Z,7.40
2022-12-04T21:09:22.507Z,7.30
2022-12-04T21:11:53.212Z,7.40
2022-12-04T21:14:40.777Z,7.40
2022-12-04T21:17:11.742Z,7.40
2022-12-04T21:19:39.798Z,7.40
2022-12-04T21:22:07.927Z,7.30
2022-12-04T21:24:38.751Z,7.40
2022-12-04T21:27:09.155Z,7.30
2022-12-04T21:29:38.079Z,7.30
2022-12-04T21:32:07.543Z,7.40
2022-12-04T21:34:36.175Z,7.40
2022-12-04T21:37:06.247Z,7.40
2022-12-04T21:39:36.046Z,7.40
2022-12-04T21:42:21.605Z,7.40
2022-12-04T21:44:50.992Z,7.40
2022-12-04T21:47:19.063Z,7.50
2022-12-04T21:49:47.696Z,7.50
2022-12-04T21:52:17.847Z,7.50
2022-12-04T21:54:46.256Z,7.50
2022-12-04T21:57:14.935Z,7.50
2022-12-04T21:59:42.989Z,7.40
2022-12-04T22:02:13.644Z,7.30
2022-12-04T22:04:43.281Z,7.10
2022-12-04T22:07:12.849Z,7.20
2022-12-04T22:09:41.140Z,7.30
2022-12-04T22:14:57.515Z,7.30
2022-12-04T22:17:30.227Z,7.40
2022-12-04T22:19:58.514Z,7.40
2022-12-04T22:22:26.700Z,7.30
2022-12-04T22:24:54.744Z,7.40
2022-12-04T22:27:22.746Z,7.40
2022-12-04T22:29:51.413Z,7.40
2022-12-04T22:32:19.969Z,7.30
2022-12-04T22:34:50.342Z,7.40
2022-12-04T22:37:18.332Z,7.40
2022-12-04T22:39:46.364Z,7.40
2022-12-04T22:42:14.334Z,7.40
2022-12-04T22:44:42.492Z,7.40
2022-12-04T22:47:10.507Z,7.40
2022-12-04T22:49:38.526Z,7.40
2022-12-04T22:52:07.906Z,7.40
2022-12-04T22:54:35.954Z,7.30
2022-12-04T22:57:03.953Z,7.40
2022-12-04T22:59:32.296Z,7.30
2022-12-04T23:02:01.219Z,7.40
2022-12-04T23:04:29.546Z,7.50
2022-12-04T23:06:57.607Z,7.40
2022-12-04T23:09:28.959Z,7.40
2022-12-04T23:11:57.564Z,7.40
2022-12-04T23:14:27.056Z,7.40
2022-12-04T23:16:55.354Z,7.40
2022-12-04T23:19:24.423Z,7.30
2022-12-04T23:21:56.941Z,7.20
2022-12-04T23:24:27.116Z,7.30
2022-12-04T23:26:55.299Z,7.40
2022-12-04T23:29:52.202Z,7.40
2022-12-04T23:32:11.662Z,7.40
2022-12-04T23:34:40.259Z,7.40
2022-12-04T23:37:08.217Z,7.40
2022-12-04T23:39:37.567Z,7.50
2022-12-04T23:42:05.550Z,7.50
2022-12-04T23:44:33.572Z,7.50
2022-12-04T23:47:04.018Z,7.50
2022-12-04T23:49:32.550Z,7.50
2022-12-04T23:52:00.869Z,7.50
2022-12-04T23:54:34.880Z,7.40
2022-12-04T23:57:04.310Z,7.50
2022-12-04T23:59:32.935Z,7.50
